FLIGHT INFORMATION
Norwegian Air Shuttle

NAX260

At Arrival Gate

ENGM
 LOWI
DATE: 2019-11-18
GATE:  -
GATE DEPARTURE: 07:57
TAKEOFF: 08:06
DATE: 2019-11-18
GATE:  -
LANDING: 10:24
GATE ARRIVAL: 10:30
FLIGHT DATA
Crew: CHRIS MAKRIS
Speed: 466 kts Altitude: 37000 ft
Stage Length: 777 nm
Route: 
Block Time: 2.6 Flight Time: 2.3
Fuel Used: 13667 LB
TRACK DATA
50000 FT1000 KTAltitudeSpeed
AIRCRAFT INFORMATION
Aircraft Type: B738BW
Registration: SE-RRC
SELCAL:  MSN/LN: 40869 / 3651
Operator: NORWEGIAN AIR SHUTTLE
Flights: 13 Block Time: 34.3 Flight Time: 31.9
Fuel Used: 188251 LB
  • DEPARTURE INFORMATION
    Date: 2019-11-18
    Airport: ENGM
    Gate:  -
    Gate Departure: 07:57
    Takeoff: 08:06
    ARRIVAL INFORMATION
    Date: 2019-11-18
    Airport: LOWI
    Gate:  -
    Landing: 10:24
    Gate Arrival: 10:30
  • FLIGHT DATA
    Crew: CHRIS MAKRIS
    Speed: 466 kts Altitude: 37000 ft
    Stage Length: 420 nm
    Route: 
    Block Time: 2.6 Flight Time: 2.3
    Fuel Used: 13667 LB
  • AIRCRAFT INFORMATION
    Aircraft Type: B738BW
    Registration: SE-RRC
    SELCAL:  MSN/LN: 40869 / 3651
    Operator: Norwegian Air Shuttle
    Flights: 13 Block Time: 34.3 Flight Time: 31.9
    Fuel Used: 188251 LB

DATALINK LOG | Newest first | Current as of: 2020-07-11 20:15:29
LABEL ID SEQUENCE CONTENT Dn/Up
QD302710:30 7.2▼ Dn
QC255610:24▼ Dn
GA1835ADVANCED GATE ASSIGNMENTS NOT YET AVAILABLE AT THIS AIRPORT▲ Up
GR1948LOWI --:-- MAAS 00 YP/UM 01/02 WCHR/S/C 00/00/00 DIPL/VIP NO▼ Dn
5U5104LOWI 181243Z 10012G25KT 9999 FEW020 SCT150 01/01 Q1009▲ Up
5S5104LOWI▼ Dn
QB060408:06▼ Dn
QA571307:57 20.8▼ Dn
2U4552ENGM 180720Z 02006KT 2500 SN BR OVC003 00/M00 Q1017 NOSIG RMK VATSIM INJECTION▲ Up
2U4552LOWI 180720Z 25004KT 200V270 1500 BR BCFG BKN002 01/01 Q1008 R08/29//95 BECMG FM0800 5000 NSW SCT002 RMK VATSIM INJECTION▲ Up
2S4552ENGM LOWI▼ Dn
A34215CLEARED TO LOWI VIA OKSA4A OKSAT L996 KELIN SALLO M44 KOGIM M725 OBANI Z36 MAREM RUDAP UP31 DOSEL M736 TULSI TULS3A. SQUAWK 0745.▲ Up
B34205ENGM LOWI A ▼ Dn
Q04003[LINK ACK]▲ Up
Q04157[LINK TEST]▼ Dn


AIRCRAFT HISTORY
FLIGHT DATE FLIGHT NUMBER ORIGIN DESTINATION ROUTE BLOCK TIME FLIGHT TIME FUEL USED (LB) PILOT
2020-06-25NAX402ENGM ENAL ENGM GM442 GM616 GM619 GM717 EVTOG OSVIG XISCO OBITI ENAL0.90.74423Robin Oeverby
2020-06-21NAX1977LYBE ENGM LYBE TISAK TONDO BEGLA LOKVU LEMBI HDO BUSIR KOBUS EBASA LUROS OBANI IDOBA TUVAK GERGA RENKI RAKIT RODEP UDAXI MASOR LABES KOGIM ARGAD SALLO TOPLA XENTA REGMA LUNIP ENGM2.72.414994Robin Oeverby
2020-06-14NAX4341ESSA LYBE ESSA TRS NUGPU INGIS ARMOD TESPO PENOR MOTAD DOMAG VAPOS KARTI IRLUN GRUDA BIBKA NASOK PENEX ADOXO EVEPU POLON EVGUR BABKO LITKU PARAK TISAK LYBE2.32.213151Robin Oeverby
2020-06-12NAX4072ESGG ESSA ESGG LABAN DETSO PELIT TORVA ARS ELTOK ESSA10.74969Robin Oeverby
2020-06-11NAX4266LEAL ESGG LEAL MITOS ARGOR EBROX LATRO OLOXO OKABI TOU FISTO PERIG FOUCO ADABI BOKNO DEVRO VANAD VADOM BAMES ARSAF KOPOR MTD NURMO PERON SULEX CMB VEKIN ADUTO FERDI HELEN TOLEN STD EKROS SPY BETUS ANDIK KEKIX GRONY BEDUM LABIL JUIST NIRDU CORIS WELGO LEGPI TUSKA INSUS MIKRO BAVTA GIKIV INTET RADIS GOTEX LOBBI ESGG3.33.118625Robin Oeverby
2020-06-11NAX5345ENTC LEAL ENTC AMIMO GUBAV TUXOT SOMUB VEXOM TUTBI BELGU GIMEX RIPAM ULMUG PIPEX AMSEV PEVOR BAVTA MIKRO INSUS TUSKA LEGPI WELGO CORIS NIRDU JUIST TEMLU EEL LILSI PAM LEKKO LARAS KUDAD WOODY NIK DENOX CIV MEDIL PITHI LESDO KOVIN DUCRA RESMI DEKOD DISAK DEPOM DIRMO GUERE ETENU EVPOK MAKOX AGN ANETO TURUV GRAUS LOBAR SEROX CASPE MLA CRETA RIMES SAURA TATOS PLANA VLC LEAL54.827489Robin Oeverby
2020-06-10NAX328ENGM ENTC ENGM RIBBE GIGNI SOMUB TUXOT GUBAV AMIMO ENTC1.71.59596Robin Oeverby
2020-06-10NAX949EKCH ENGM EKCH VEDAR LASLI RISMA GIXUN SABAK XENTA REGMA LUNIP ENGM10.85826Robin Oeverby
2020-06-06NAX3615LPMA EKCH LPMA SNT LIDRO VABEM PINEK LOTEE NOVAN ERIGA MOKOR OLEBA BAKUL ARDOD OBATO RONAX SORAP DITAL EVX PODEM BAZOS SOMIL BELDI VEKIN ADUTO FERDI HELEN TOLEN DOSUR TALSA TUDLO EKCH4.3424034Robin Oeverby
2020-03-07NAX260LGSA LPMA 5.65.431323Chris Makris
2019-11-23NAX260LOWI LGSA 2.52.313794Chris Makris
2019-11-18NAX260ENGM LOWI 2.62.313667Chris Makris
2019-11-13NAX8187ESSA ENGM 1.10.86361Matthew Gales